sensor_id;sensor_type;location;lat;lon;timestamp;P1;durP1;ratioP1;P2;durP2;ratioP2
20511;SDS011;10414;52.074;5.126;2022-07-23T00:01:42;5.53;;;2.03;;
20511;SDS011;10414;52.074;5.126;2022-07-23T00:04:09;4.53;;;2.08;;
20511;SDS011;10414;52.074;5.126;2022-07-23T00:06:36;4.60;;;1.90;;
20511;SDS011;10414;52.074;5.126;2022-07-23T00:09:03;6.72;;;2.55;;
20511;SDS011;10414;52.074;5.126;2022-07-23T00:11:29;5.40;;;1.80;;
20511;SDS011;10414;52.074;5.126;2022-07-23T00:13:56;8.23;;;2.03;;
20511;SDS011;10414;52.074;5.126;2022-07-23T00:16:23;5.07;;;2.00;;
20511;SDS011;10414;52.074;5.126;2022-07-23T00:18:52;4.60;;;1.80;;
20511;SDS011;10414;52.074;5.126;2022-07-23T00:21:19;8.93;;;2.00;;
20511;SDS011;10414;52.074;5.126;2022-07-23T00:23:46;6.05;;;1.95;;
20511;SDS011;10414;52.074;5.126;2022-07-23T00:26:13;5.63;;;2.03;;
20511;SDS011;10414;52.074;5.126;2022-07-23T00:28:40;4.90;;;1.95;;
20511;SDS011;10414;52.074;5.126;2022-07-23T00:31:07;4.85;;;2.30;;
20511;SDS011;10414;52.074;5.126;2022-07-23T00:33:34;4.80;;;2.42;;
20511;SDS011;10414;52.074;5.126;2022-07-23T00:36:02;7.47;;;2.25;;
20511;SDS011;10414;52.074;5.126;2022-07-23T00:38:29;5.72;;;2.42;;
20511;SDS011;10414;52.074;5.126;2022-07-23T00:40:57;6.97;;;2.30;;
20511;SDS011;10414;52.074;5.126;2022-07-23T00:43:24;6.30;;;2.45;;
20511;SDS011;10414;52.074;5.126;2022-07-23T00:45:51;5.25;;;2.42;;
20511;SDS011;10414;52.074;5.126;2022-07-23T00:48:18;4.70;;;2.45;;
20511;SDS011;10414;52.074;5.126;2022-07-23T00:50:45;4.88;;;2.40;;
20511;SDS011;10414;52.074;5.126;2022-07-23T00:53:14;6.03;;;2.20;;
20511;SDS011;10414;52.074;5.126;2022-07-23T00:55:41;5.30;;;2.10;;
20511;SDS011;10414;52.074;5.126;2022-07-23T00:58:08;5.38;;;2.20;;
20511;SDS011;10414;52.074;5.126;2022-07-23T01:00:35;7.78;;;2.55;;
20511;SDS011;10414;52.074;5.126;2022-07-23T01:03:02;6.63;;;2.25;;
20511;SDS011;10414;52.074;5.126;2022-07-23T01:05:29;5.53;;;2.40;;
20511;SDS011;10414;52.074;5.126;2022-07-23T01:07:56;5.45;;;2.30;;
20511;SDS011;10414;52.074;5.126;2022-07-23T01:10:25;5.55;;;2.50;;
20511;SDS011;10414;52.074;5.126;2022-07-23T01:12:59;6.60;;;2.50;;
20511;SDS011;10414;52.074;5.126;2022-07-23T01:15:27;6.65;;;2.80;;
20511;SDS011;10414;52.074;5.126;2022-07-23T01:17:55;4.60;;;2.40;;
20511;SDS011;10414;52.074;5.126;2022-07-23T01:20:22;5.78;;;3.00;;
20511;SDS011;10414;52.074;5.126;2022-07-23T01:22:51;6.05;;;3.10;;
20511;SDS011;10414;52.074;5.126;2022-07-23T01:25:18;6.15;;;2.70;;
20511;SDS011;10414;52.074;5.126;2022-07-23T01:27:45;5.07;;;2.65;;
20511;SDS011;10414;52.074;5.126;2022-07-23T01:30:12;7.60;;;2.63;;
20511;SDS011;10414;52.074;5.126;2022-07-23T01:32:40;7.18;;;3.10;;
20511;SDS011;10414;52.074;5.126;2022-07-23T01:35:07;9.32;;;3.22;;
20511;SDS011;10414;52.074;5.126;2022-07-23T01:37:35;6.00;;;2.83;;
20511;SDS011;10414;52.074;5.126;2022-07-23T01:40:04;7.60;;;2.90;;
20511;SDS011;10414;52.074;5.126;2022-07-23T01:42:32;6.90;;;2.97;;
20511;SDS011;10414;52.074;5.126;2022-07-23T01:44:59;6.88;;;2.40;;
20511;SDS011;10414;52.074;5.126;2022-07-23T01:47:26;6.57;;;2.92;;
20511;SDS011;10414;52.074;5.126;2022-07-23T01:49:53;5.22;;;2.45;;
20511;SDS011;10414;52.074;5.126;2022-07-23T01:52:20;5.63;;;2.80;;
20511;SDS011;10414;52.074;5.126;2022-07-23T01:54:47;8.13;;;3.28;;
20511;SDS011;10414;52.074;5.126;2022-07-23T01:57:15;6.13;;;3.10;;
20511;SDS011;10414;52.074;5.126;2022-07-23T01:59:42;5.75;;;3.08;;
20511;SDS011;10414;52.074;5.126;2022-07-23T02:02:09;8.45;;;3.30;;
20511;SDS011;10414;52.074;5.126;2022-07-23T02:04:36;5.55;;;3.05;;
20511;SDS011;10414;52.074;5.126;2022-07-23T02:07:03;5.72;;;3.20;;
20511;SDS011;10414;52.074;5.126;2022-07-23T02:09:31;9.07;;;3.15;;
20511;SDS011;10414;52.074;5.126;2022-07-23T02:11:58;6.25;;;3.22;;
20511;SDS011;10414;52.074;5.126;2022-07-23T02:14:27;6.65;;;3.00;;
20511;SDS011;10414;52.074;5.126;2022-07-23T02:16:53;7.78;;;3.42;;
20511;SDS011;10414;52.074;5.126;2022-07-23T02:19:20;6.32;;;3.40;;
20511;SDS011;10414;52.074;5.126;2022-07-23T02:21:47;5.22;;;2.97;;
20511;SDS011;10414;52.074;5.126;2022-07-23T02:24:14;6.60;;;3.10;;
20511;SDS011;10414;52.074;5.126;2022-07-23T02:26:41;7.30;;;3.40;;
20511;SDS011;10414;52.074;5.126;2022-07-23T02:29:08;6.38;;;3.22;;
20511;SDS011;10414;52.074;5.126;2022-07-23T02:31:37;7.75;;;3.22;;
20511;SDS011;10414;52.074;5.126;2022-07-23T02:34:03;7.65;;;3.05;;
20511;SDS011;10414;52.074;5.126;2022-07-23T02:36:30;8.30;;;4.70;;
20511;SDS011;10414;52.074;5.126;2022-07-23T02:38:57;7.13;;;3.05;;
20511;SDS011;10414;52.074;5.126;2022-07-23T02:41:24;7.70;;;3.20;;
20511;SDS011;10414;52.074;5.126;2022-07-23T02:43:51;6.25;;;3.10;;
20511;SDS011;10414;52.074;5.126;2022-07-23T02:46:18;9.35;;;2.95;;
20511;SDS011;10414;52.074;5.126;2022-07-23T02:48:46;7.65;;;3.35;;
20511;SDS011;10414;52.074;5.126;2022-07-23T02:51:13;9.93;;;3.42;;
20511;SDS011;10414;52.074;5.126;2022-07-23T02:53:40;5.50;;;2.88;;
20511;SDS011;10414;52.074;5.126;2022-07-23T02:56:07;7.60;;;3.25;;
20511;SDS011;10414;52.074;5.126;2022-07-23T02:58:34;8.80;;;3.00;;
20511;SDS011;10414;52.074;5.126;2022-07-23T03:01:02;8.80;;;3.65;;
20511;SDS011;10414;52.074;5.126;2022-07-23T03:03:29;7.50;;;3.45;;
20511;SDS011;10414;52.074;5.126;2022-07-23T03:05:57;6.18;;;3.50;;
20511;SDS011;10414;52.074;5.126;2022-07-23T03:08:24;7.15;;;3.35;;
20511;SDS011;10414;52.074;5.126;2022-07-23T03:10:51;5.18;;;3.13;;
20511;SDS011;10414;52.074;5.126;2022-07-23T03:13:18;7.25;;;3.78;;
20511;SDS011;10414;52.074;5.126;2022-07-23T03:15:45;7.70;;;3.53;;
20511;SDS011;10414;52.074;5.126;2022-07-23T03:18:12;6.20;;;3.35;;
20511;SDS011;10414;52.074;5.126;2022-07-23T03:20:39;5.85;;;3.30;;
20511;SDS011;10414;52.074;5.126;2022-07-23T03:23:07;9.25;;;4.00;;
20511;SDS011;10414;52.074;5.126;2022-07-23T03:25:34;5.97;;;3.03;;
20511;SDS011;10414;52.074;5.126;2022-07-23T03:28:01;7.20;;;3.33;;
20511;SDS011;10414;52.074;5.126;2022-07-23T03:30:28;6.68;;;2.90;;
20511;SDS011;10414;52.074;5.126;2022-07-23T03:32:55;7.93;;;3.13;;
20511;SDS011;10414;52.074;5.126;2022-07-23T03:35:22;7.68;;;3.00;;
20511;SDS011;10414;52.074;5.126;2022-07-23T03:37:49;8.73;;;3.33;;
20511;SDS011;10414;52.074;5.126;2022-07-23T03:40:17;5.25;;;2.80;;
20511;SDS011;10414;52.074;5.126;2022-07-23T03:42:45;5.65;;;3.00;;
20511;SDS011;10414;52.074;5.126;2022-07-23T03:45:12;6.43;;;2.90;;
20511;SDS011;10414;52.074;5.126;2022-07-23T03:47:39;6.43;;;3.30;;
20511;SDS011;10414;52.074;5.126;2022-07-23T03:50:06;6.78;;;2.97;;
20511;SDS011;10414;52.074;5.126;2022-07-23T03:52:34;5.82;;;2.60;;
20511;SDS011;10414;52.074;5.126;2022-07-23T03:55:01;7.20;;;2.92;;
20511;SDS011;10414;52.074;5.126;2022-07-23T03:57:30;5.60;;;2.90;;
20511;SDS011;10414;52.074;5.126;2022-07-23T03:59:57;5.88;;;2.85;;
20511;SDS011;10414;52.074;5.126;2022-07-23T04:02:24;8.40;;;3.00;;
20511;SDS011;10414;52.074;5.126;2022-07-23T04:04:51;6.75;;;3.30;;
20511;SDS011;10414;52.074;5.126;2022-07-23T04:07:18;6.22;;;3.13;;
20511;SDS011;10414;52.074;5.126;2022-07-23T04:09:46;5.97;;;3.30;;
20511;SDS011;10414;52.074;5.126;2022-07-23T04:12:13;8.65;;;3.40;;
20511;SDS011;10414;52.074;5.126;2022-07-23T04:14:41;7.45;;;3.40;;
20511;SDS011;10414;52.074;5.126;2022-07-23T04:17:08;6.78;;;3.20;;
20511;SDS011;10414;52.074;5.126;2022-07-23T04:19:35;6.65;;;3.03;;
20511;SDS011;10414;52.074;5.126;2022-07-23T04:24:33;5.38;;;3.00;;
20511;SDS011;10414;52.074;5.126;2022-07-23T04:27:00;7.60;;;3.10;;
20511;SDS011;10414;52.074;5.126;2022-07-23T04:29:28;6.15;;;3.42;;
20511;SDS011;10414;52.074;5.126;2022-07-23T04:31:57;8.57;;;3.10;;
20511;SDS011;10414;52.074;5.126;2022-07-23T04:34:24;9.23;;;3.40;;
20511;SDS011;10414;52.074;5.126;2022-07-23T04:36:51;7.97;;;3.38;;
20511;SDS011;10414;52.074;5.126;2022-07-23T04:39:19;8.77;;;3.03;;
20511;SDS011;10414;52.074;5.126;2022-07-23T04:41:45;8.65;;;3.05;;
20511;SDS011;10414;52.074;5.126;2022-07-23T04:44:12;4.65;;;2.70;;
20511;SDS011;10414;52.074;5.126;2022-07-23T04:46:39;5.78;;;2.42;;
20511;SDS011;10414;52.074;5.126;2022-07-23T04:49:08;4.68;;;2.47;;
20511;SDS011;10414;52.074;5.126;2022-07-23T04:51:35;6.35;;;2.22;;
20511;SDS011;10414;52.074;5.126;2022-07-23T04:54:02;4.63;;;2.42;;
20511;SDS011;10414;52.074;5.126;2022-07-23T04:56:29;4.18;;;2.00;;
20511;SDS011;10414;52.074;5.126;2022-07-23T04:58:55;5.13;;;2.00;;
20511;SDS011;10414;52.074;5.126;2022-07-23T05:01:22;6.35;;;2.33;;
20511;SDS011;10414;52.074;5.126;2022-07-23T05:03:49;4.57;;;2.08;;
20511;SDS011;10414;52.074;5.126;2022-07-23T05:06:17;4.78;;;1.70;;
20511;SDS011;10414;52.074;5.126;2022-07-23T05:08:44;6.82;;;1.85;;
20511;SDS011;10414;52.074;5.126;2022-07-23T05:11:11;3.83;;;1.73;;
20511;SDS011;10414;52.074;5.126;2022-07-23T05:13:38;4.60;;;1.60;;
20511;SDS011;10414;52.074;5.126;2022-07-23T05:16:04;6.90;;;1.73;;
20511;SDS011;10414;52.074;5.126;2022-07-23T05:18:31;6.82;;;1.60;;
20511;SDS011;10414;52.074;5.126;2022-07-23T05:20:59;6.03;;;1.70;;
20511;SDS011;10414;52.074;5.126;2022-07-23T05:23:27;5.25;;;1.40;;
20511;SDS011;10414;52.074;5.126;2022-07-23T05:25:54;7.50;;;1.58;;
20511;SDS011;10414;52.074;5.126;2022-07-23T05:28:21;4.13;;;1.42;;
20511;SDS011;10414;52.074;5.126;2022-07-23T05:30:48;7.05;;;1.52;;
20511;SDS011;10414;52.074;5.126;2022-07-23T05:33:16;3.65;;;1.42;;
20511;SDS011;10414;52.074;5.126;2022-07-23T05:35:44;4.55;;;1.58;;
20511;SDS011;10414;52.074;5.126;2022-07-23T05:38:11;2.80;;;1.20;;
20511;SDS011;10414;52.074;5.126;2022-07-23T05:40:39;5.68;;;1.33;;
20511;SDS011;10414;52.074;5.126;2022-07-23T05:43:06;2.80;;;1.13;;
20511;SDS011;10414;52.074;5.126;2022-07-23T05:45:33;2.63;;;1.00;;
20511;SDS011;10414;52.074;5.126;2022-07-23T05:48:00;3.58;;;1.20;;
20511;SDS011;10414;52.074;5.126;2022-07-23T05:50:27;5.15;;;1.13;;
20511;SDS011;10414;52.074;5.126;2022-07-23T05:52:54;2.50;;;0.90;;
20511;SDS011;10414;52.074;5.126;2022-07-23T05:55:20;4.03;;;1.10;;
20511;SDS011;10414;52.074;5.126;2022-07-23T05:57:49;4.20;;;1.17;;
20511;SDS011;10414;52.074;5.126;2022-07-23T06:00:16;3.25;;;1.17;;
20511;SDS011;10414;52.074;5.126;2022-07-23T06:02:43;5.15;;;1.30;;
20511;SDS011;10414;52.074;5.126;2022-07-23T06:05:10;3.00;;;1.20;;
20511;SDS011;10414;52.074;5.126;2022-07-23T06:07:37;6.75;;;1.20;;
20511;SDS011;10414;52.074;5.126;2022-07-23T06:10:04;4.72;;;1.48;;
20511;SDS011;10414;52.074;5.126;2022-07-23T06:12:32;3.83;;;1.15;;
20511;SDS011;10414;52.074;5.126;2022-07-23T06:15:00;4.60;;;1.45;;
20511;SDS011;10414;52.074;5.126;2022-07-23T06:17:27;5.65;;;1.27;;
20511;SDS011;10414;52.074;5.126;2022-07-23T06:19:54;5.28;;;1.08;;
20511;SDS011;10414;52.074;5.126;2022-07-23T06:22:22;4.63;;;1.13;;
20511;SDS011;10414;52.074;5.126;2022-07-23T06:24:49;3.15;;;1.20;;
20511;SDS011;10414;52.074;5.126;2022-07-23T06:27:16;3.53;;;1.17;;
20511;SDS011;10414;52.074;5.126;2022-07-23T06:29:44;6.72;;;1.40;;
20511;SDS011;10414;52.074;5.126;2022-07-23T06:32:12;2.10;;;1.00;;
20511;SDS011;10414;52.074;5.126;2022-07-23T06:34:39;5.78;;;1.20;;
20511;SDS011;10414;52.074;5.126;2022-07-23T06:37:06;3.58;;;1.05;;
20511;SDS011;10414;52.074;5.126;2022-07-23T06:39:32;2.10;;;0.93;;
20511;SDS011;10414;52.074;5.126;2022-07-23T06:41:59;4.32;;;1.00;;
20511;SDS011;10414;52.074;5.126;2022-07-23T06:44:27;3.60;;;1.05;;
20511;SDS011;10414;52.074;5.126;2022-07-23T06:46:54;3.50;;;1.10;;
20511;SDS011;10414;52.074;5.126;2022-07-23T06:49:22;3.55;;;1.25;;
20511;SDS011;10414;52.074;5.126;2022-07-23T06:51:49;3.53;;;1.20;;
20511;SDS011;10414;52.074;5.126;2022-07-23T06:54:16;4.35;;;1.15;;
20511;SDS011;10414;52.074;5.126;2022-07-23T06:56:43;3.35;;;1.00;;
20511;SDS011;10414;52.074;5.126;2022-07-23T06:59:10;3.72;;;0.85;;
20511;SDS011;10414;52.074;5.126;2022-07-23T07:01:37;3.55;;;0.95;;
20511;SDS011;10414;52.074;5.126;2022-07-23T07:04:03;3.05;;;0.90;;
20511;SDS011;10414;52.074;5.126;2022-07-23T07:06:32;3.78;;;1.00;;
20511;SDS011;10414;52.074;5.126;2022-07-23T07:08:59;3.97;;;1.10;;
20511;SDS011;10414;52.074;5.126;2022-07-23T07:11:26;3.42;;;1.10;;
20511;SDS011;10414;52.074;5.126;2022-07-23T07:13:54;2.67;;;1.00;;
20511;SDS011;10414;52.074;5.126;2022-07-23T07:16:21;3.92;;;0.90;;
20511;SDS011;10414;52.074;5.126;2022-07-23T07:18:48;4.43;;;0.93;;
20511;SDS011;10414;52.074;5.126;2022-07-23T07:21:15;3.55;;;1.20;;
20511;SDS011;10414;52.074;5.126;2022-07-23T07:23:43;4.72;;;1.20;;
20511;SDS011;10414;52.074;5.126;2022-07-23T07:26:10;4.40;;;0.93;;
20511;SDS011;10414;52.074;5.126;2022-07-23T07:28:37;5.13;;;1.20;;
20511;SDS011;10414;52.074;5.126;2022-07-23T07:31:04;4.43;;;1.50;;
20511;SDS011;10414;52.074;5.126;2022-07-23T07:33:31;3.03;;;0.98;;
20511;SDS011;10414;52.074;5.126;2022-07-23T07:35:58;2.40;;;0.90;;
20511;SDS011;10414;52.074;5.126;2022-07-23T07:38:25;3.42;;;1.20;;
20511;SDS011;10414;52.074;5.126;2022-07-23T07:40:54;5.47;;;1.30;;
20511;SDS011;10414;52.074;5.126;2022-07-23T07:43:21;5.22;;;1.10;;
20511;SDS011;10414;52.074;5.126;2022-07-23T07:45:48;3.17;;;1.17;;
20511;SDS011;10414;52.074;5.126;2022-07-23T07:48:14;2.78;;;1.10;;
20511;SDS011;10414;52.074;5.126;2022-07-23T07:50:41;3.35;;;1.10;;
20511;SDS011;10414;52.074;5.126;2022-07-23T07:53:08;3.70;;;0.98;;
20511;SDS011;10414;52.074;5.126;2022-07-23T07:55:35;3.90;;;1.00;;
20511;SDS011;10414;52.074;5.126;2022-07-23T07:58:03;3.30;;;1.00;;
20511;SDS011;10414;52.074;5.126;2022-07-23T08:00:30;3.20;;;1.15;;
20511;SDS011;10414;52.074;5.126;2022-07-23T08:02:58;2.50;;;0.95;;
20511;SDS011;10414;52.074;5.126;2022-07-23T08:05:25;4.18;;;1.10;;
20511;SDS011;10414;52.074;5.126;2022-07-23T08:07:53;4.10;;;0.98;;
20511;SDS011;10414;52.074;5.126;2022-07-23T08:10:20;4.25;;;1.20;;
20511;SDS011;10414;52.074;5.126;2022-07-23T08:12:48;6.20;;;0.95;;
20511;SDS011;10414;52.074;5.126;2022-07-23T08:15:17;4.00;;;1.17;;
20511;SDS011;10414;52.074;5.126;2022-07-23T08:17:46;3.88;;;1.05;;
20511;SDS011;10414;52.074;5.126;2022-07-23T08:20:15;3.65;;;1.10;;
20511;SDS011;10414;52.074;5.126;2022-07-23T08:22:44;5.20;;;1.10;;
20511;SDS011;10414;52.074;5.126;2022-07-23T08:25:11;4.60;;;1.08;;
20511;SDS011;10414;52.074;5.126;2022-07-23T08:27:39;4.78;;;1.15;;
20511;SDS011;10414;52.074;5.126;2022-07-23T08:30:06;3.78;;;1.00;;
20511;SDS011;10414;52.074;5.126;2022-07-23T08:32:48;4.60;;;1.05;;
20511;SDS011;10414;52.074;5.126;2022-07-23T08:35:16;3.22;;;0.93;;
20511;SDS011;10414;52.074;5.126;2022-07-23T08:37:43;3.45;;;1.08;;
20511;SDS011;10414;52.074;5.126;2022-07-23T08:40:10;2.70;;;0.90;;
20511;SDS011;10414;52.074;5.126;2022-07-23T08:42:37;4.57;;;1.00;;
20511;SDS011;10414;52.074;5.126;2022-07-23T08:45:05;2.65;;;0.88;;
20511;SDS011;10414;52.074;5.126;2022-07-23T08:47:34;2.92;;;0.90;;
20511;SDS011;10414;52.074;5.126;2022-07-23T08:50:05;3.97;;;0.90;;
20511;SDS011;10414;52.074;5.126;2022-07-23T08:52:34;2.70;;;0.80;;
20511;SDS011;10414;52.074;5.126;2022-07-23T08:55:03;2.67;;;0.90;;
20511;SDS011;10414;52.074;5.126;2022-07-23T08:57:30;3.38;;;0.98;;
20511;SDS011;10414;52.074;5.126;2022-07-23T08:59:57;3.92;;;1.02;;
20511;SDS011;10414;52.074;5.126;2022-07-23T09:02:24;3.25;;;0.90;;
20511;SDS011;10414;52.074;5.126;2022-07-23T09:04:51;4.10;;;1.05;;
20511;SDS011;10414;52.074;5.126;2022-07-23T09:07:19;2.80;;;1.00;;
20511;SDS011;10414;52.074;5.126;2022-07-23T09:09:46;3.47;;;1.10;;
20511;SDS011;10414;52.074;5.126;2022-07-23T09:12:30;4.90;;;1.08;;
20511;SDS011;10414;52.074;5.126;2022-07-23T09:14:57;4.60;;;1.00;;
20511;SDS011;10414;52.074;5.126;2022-07-23T09:17:36;3.83;;;1.30;;
20511;SDS011;10414;52.074;5.126;2022-07-23T09:20:09;4.22;;;1.30;;
20511;SDS011;10414;52.074;5.126;2022-07-23T09:22:39;3.10;;;1.10;;
20511;SDS011;10414;52.074;5.126;2022-07-23T09:25:08;2.65;;;1.00;;
20511;SDS011;10414;52.074;5.126;2022-07-23T09:27:48;2.95;;;1.10;;
20511;SDS011;10414;52.074;5.126;2022-07-23T09:30:18;3.55;;;0.90;;
20511;SDS011;10414;52.074;5.126;2022-07-23T09:38:16;2.80;;;1.00;;
20511;SDS011;10414;52.074;5.126;2022-07-23T09:40:43;2.33;;;0.82;;
20511;SDS011;10414;52.074;5.126;2022-07-23T09:43:11;3.75;;;1.20;;
20511;SDS011;10414;52.074;5.126;2022-07-23T09:45:39;4.10;;;1.20;;
20511;SDS011;10414;52.074;5.126;2022-07-23T09:48:12;3.63;;;1.20;;
20511;SDS011;10414;52.074;5.126;2022-07-23T09:50:40;4.88;;;1.40;;
20511;SDS011;10414;52.074;5.126;2022-07-23T09:53:08;2.80;;;1.20;;
20511;SDS011;10414;52.074;5.126;2022-07-23T09:55:37;5.15;;;1.58;;
20511;SDS011;10414;52.074;5.126;2022-07-23T09:58:05;2.72;;;0.98;;
20511;SDS011;10414;52.074;5.126;2022-07-23T10:00:34;5.50;;;1.02;;
20511;SDS011;10414;52.074;5.126;2022-07-23T10:03:02;4.30;;;1.27;;
20511;SDS011;10414;52.074;5.126;2022-07-23T10:05:30;3.88;;;0.95;;
20511;SDS011;10414;52.074;5.126;2022-07-23T10:07:59;6.33;;;1.43;;
20511;SDS011;10414;52.074;5.126;2022-07-23T10:10:28;5.95;;;1.20;;
20511;SDS011;10414;52.074;5.126;2022-07-23T10:12:57;3.17;;;1.05;;
20511;SDS011;10414;52.074;5.126;2022-07-23T10:15:51;3.05;;;0.95;;
20511;SDS011;10414;52.074;5.126;2022-07-23T10:18:19;4.38;;;1.10;;
20511;SDS011;10414;52.074;5.126;2022-07-23T10:20:47;3.22;;;0.95;;
20511;SDS011;10414;52.074;5.126;2022-07-23T10:23:16;4.28;;;1.00;;
20511;SDS011;10414;52.074;5.126;2022-07-23T10:25:51;4.95;;;1.17;;
20511;SDS011;10414;52.074;5.126;2022-07-23T10:28:48;2.90;;;1.10;;
20511;SDS011;10414;52.074;5.126;2022-07-23T10:31:31;2.90;;;1.30;;
20511;SDS011;10414;52.074;5.126;2022-07-23T10:34:08;4.77;;;1.30;;
20511;SDS011;10414;52.074;5.126;2022-07-23T10:36:44;4.05;;;1.10;;
20511;SDS011;10414;52.074;5.126;2022-07-23T10:39:17;3.28;;;1.20;;
20511;SDS011;10414;52.074;5.126;2022-07-23T10:41:48;2.78;;;1.02;;
20511;SDS011;10414;52.074;5.126;2022-07-23T10:44:17;2.60;;;1.15;;
20511;SDS011;10414;52.074;5.126;2022-07-23T10:46:54;5.75;;;1.42;;
20511;SDS011;10414;52.074;5.126;2022-07-23T10:49:39;3.33;;;1.10;;
20511;SDS011;10414;52.074;5.126;2022-07-23T10:52:15;2.83;;;1.15;;
20511;SDS011;10414;52.074;5.126;2022-07-23T10:54:47;3.92;;;1.40;;
20511;SDS011;10414;52.074;5.126;2022-07-23T10:57:16;4.47;;;1.40;;
20511;SDS011;10414;52.074;5.126;2022-07-23T11:02:45;3.10;;;1.10;;
20511;SDS011;10414;52.074;5.126;2022-07-23T11:05:13;2.67;;;1.10;;
20511;SDS011;10414;52.074;5.126;2022-07-23T11:10:43;4.85;;;1.60;;
20511;SDS011;10414;52.074;5.126;2022-07-23T11:16:11;2.95;;;1.23;;
20511;SDS011;10414;52.074;5.126;2022-07-23T11:21:41;5.68;;;1.55;;
20511;SDS011;10414;52.074;5.126;2022-07-23T11:24:09;3.97;;;1.25;;
20511;SDS011;10414;52.074;5.126;2022-07-23T11:29:44;3.70;;;1.42;;
20511;SDS011;10414;52.074;5.126;2022-07-23T11:32:33;7.45;;;2.22;;
20511;SDS011;10414;52.074;5.126;2022-07-23T11:35:06;3.35;;;1.50;;
20511;SDS011;10414;52.074;5.126;2022-07-23T11:37:46;5.57;;;1.60;;
20511;SDS011;10414;52.074;5.126;2022-07-23T11:40:14;5.10;;;1.83;;
20511;SDS011;10414;52.074;5.126;2022-07-23T11:42:51;5.03;;;1.67;;
20511;SDS011;10414;52.074;5.126;2022-07-23T11:45:19;4.50;;;1.70;;
20511;SDS011;10414;52.074;5.126;2022-07-23T11:47:47;6.75;;;1.60;;
20511;SDS011;10414;52.074;5.126;2022-07-23T11:50:14;3.28;;;1.50;;
20511;SDS011;10414;52.074;5.126;2022-07-23T11:52:41;3.58;;;1.90;;
20511;SDS011;10414;52.074;5.126;2022-07-23T11:55:08;7.03;;;1.60;;
20511;SDS011;10414;52.074;5.126;2022-07-23T11:57:38;4.15;;;1.90;;
20511;SDS011;10414;52.074;5.126;2022-07-23T12:00:07;4.93;;;1.70;;
20511;SDS011;10414;52.074;5.126;2022-07-23T12:05:05;3.78;;;1.63;;
20511;SDS011;10414;52.074;5.126;2022-07-23T12:07:37;4.10;;;1.65;;
20511;SDS011;10414;52.074;5.126;2022-07-23T12:10:11;4.32;;;1.80;;
20511;SDS011;10414;52.074;5.126;2022-07-23T12:12:41;4.88;;;1.60;;
20511;SDS011;10414;52.074;5.126;2022-07-23T12:15:09;4.38;;;2.08;;
20511;SDS011;10414;52.074;5.126;2022-07-23T12:17:38;3.75;;;2.00;;
20511;SDS011;10414;52.074;5.126;2022-07-23T12:22:38;4.97;;;2.33;;
20511;SDS011;10414;52.074;5.126;2022-07-23T12:25:07;5.25;;;2.15;;
20511;SDS011;10414;52.074;5.126;2022-07-23T12:27:36;5.40;;;2.00;;
20511;SDS011;10414;52.074;5.126;2022-07-23T12:30:20;4.03;;;1.75;;
20511;SDS011;10414;52.074;5.126;2022-07-23T12:32:50;5.32;;;2.10;;
20511;SDS011;10414;52.074;5.126;2022-07-23T12:35:19;5.18;;;2.10;;
20511;SDS011;10414;52.074;5.126;2022-07-23T12:37:48;3.90;;;1.73;;
20511;SDS011;10414;52.074;5.126;2022-07-23T12:40:27;3.78;;;1.45;;
20511;SDS011;10414;52.074;5.126;2022-07-23T12:42:56;4.47;;;1.50;;
20511;SDS011;10414;52.074;5.126;2022-07-23T12:45:25;7.28;;;2.15;;
20511;SDS011;10414;52.074;5.126;2022-07-23T12:47:57;4.55;;;1.90;;
20511;SDS011;10414;52.074;5.126;2022-07-23T12:50:36;3.88;;;1.55;;
20511;SDS011;10414;52.074;5.126;2022-07-23T12:53:09;3.90;;;1.80;;
20511;SDS011;10414;52.074;5.126;2022-07-23T12:55:38;4.93;;;1.90;;
20511;SDS011;10414;52.074;5.126;2022-07-23T12:58:06;6.35;;;2.00;;
20511;SDS011;10414;52.074;5.126;2022-07-23T13:00:51;4.85;;;1.90;;
20511;SDS011;10414;52.074;5.126;2022-07-23T13:03:21;4.20;;;1.50;;
20511;SDS011;10414;52.074;5.126;2022-07-23T13:05:50;3.15;;;1.80;;
20511;SDS011;10414;52.074;5.126;2022-07-23T13:08:17;4.15;;;1.67;;
20511;SDS011;10414;52.074;5.126;2022-07-23T13:10:44;4.18;;;2.20;;
20511;SDS011;10414;52.074;5.126;2022-07-23T13:13:13;3.42;;;1.85;;
20511;SDS011;10414;52.074;5.126;2022-07-23T13:15:40;3.80;;;1.90;;
20511;SDS011;10414;52.074;5.126;2022-07-23T13:18:08;3.85;;;1.70;;
20511;SDS011;10414;52.074;5.126;2022-07-23T13:20:35;4.85;;;1.85;;
20511;SDS011;10414;52.074;5.126;2022-07-23T13:23:05;4.30;;;1.92;;
20511;SDS011;10414;52.074;5.126;2022-07-23T13:25:32;5.00;;;2.08;;
20511;SDS011;10414;52.074;5.126;2022-07-23T13:27:59;5.03;;;1.80;;
20511;SDS011;10414;52.074;5.126;2022-07-23T13:30:27;5.15;;;1.65;;
20511;SDS011;10414;52.074;5.126;2022-07-23T13:32:54;3.75;;;1.80;;
20511;SDS011;10414;52.074;5.126;2022-07-23T13:35:21;9.90;;;2.17;;
20511;SDS011;10414;52.074;5.126;2022-07-23T13:37:48;4.50;;;2.20;;
20511;SDS011;10414;52.074;5.126;2022-07-23T13:40:16;4.65;;;1.80;;
20511;SDS011;10414;52.074;5.126;2022-07-23T13:42:43;3.75;;;1.80;;
20511;SDS011;10414;52.074;5.126;2022-07-23T13:45:10;6.60;;;1.90;;
20511;SDS011;10414;52.074;5.126;2022-07-23T13:47:37;4.13;;;1.70;;
20511;SDS011;10414;52.074;5.126;2022-07-23T13:50:04;4.18;;;1.70;;
20511;SDS011;10414;52.074;5.126;2022-07-23T13:52:32;4.47;;;1.90;;
20511;SDS011;10414;52.074;5.126;2022-07-23T13:55:00;4.90;;;2.10;;
20511;SDS011;10414;52.074;5.126;2022-07-23T13:57:28;4.15;;;1.70;;
20511;SDS011;10414;52.074;5.126;2022-07-23T13:59:56;4.70;;;1.98;;
20511;SDS011;10414;52.074;5.126;2022-07-23T14:02:23;4.22;;;1.75;;
20511;SDS011;10414;52.074;5.126;2022-07-23T14:04:50;3.17;;;1.55;;
20511;SDS011;10414;52.074;5.126;2022-07-23T14:07:20;3.75;;;2.00;;
20511;SDS011;10414;52.074;5.126;2022-07-23T14:09:47;4.63;;;1.88;;
20511;SDS011;10414;52.074;5.126;2022-07-23T14:12:14;3.85;;;2.00;;
20511;SDS011;10414;52.074;5.126;2022-07-23T14:14:43;4.03;;;1.65;;
20511;SDS011;10414;52.074;5.126;2022-07-23T14:17:10;4.95;;;1.83;;
20511;SDS011;10414;52.074;5.126;2022-07-23T14:19:37;5.10;;;2.15;;
20511;SDS011;10414;52.074;5.126;2022-07-23T14:22:04;3.40;;;1.98;;
20511;SDS011;10414;52.074;5.126;2022-07-23T14:24:31;4.78;;;1.80;;
20511;SDS011;10414;52.074;5.126;2022-07-23T14:26:59;4.50;;;1.75;;
20511;SDS011;10414;52.074;5.126;2022-07-23T14:29:26;5.10;;;1.80;;
20511;SDS011;10414;52.074;5.126;2022-07-23T14:31:54;5.70;;;2.10;;
20511;SDS011;10414;52.074;5.126;2022-07-23T14:34:21;5.35;;;1.88;;
20511;SDS011;10414;52.074;5.126;2022-07-23T14:36:49;4.53;;;2.15;;
20511;SDS011;10414;52.074;5.126;2022-07-23T14:39:15;5.45;;;2.08;;
20511;SDS011;10414;52.074;5.126;2022-07-23T14:41:42;5.75;;;2.05;;
20511;SDS011;10414;52.074;5.126;2022-07-23T14:44:09;5.32;;;2.10;;
20511;SDS011;10414;52.074;5.126;2022-07-23T14:46:36;6.05;;;2.00;;
20511;SDS011;10414;52.074;5.126;2022-07-23T14:49:06;3.28;;;2.03;;
20511;SDS011;10414;52.074;5.126;2022-07-23T14:51:33;5.28;;;2.42;;
20511;SDS011;10414;52.074;5.126;2022-07-23T14:54:01;5.72;;;2.03;;
20511;SDS011;10414;52.074;5.126;2022-07-23T14:56:28;4.32;;;2.22;;
20511;SDS011;10414;52.074;5.126;2022-07-23T14:58:55;4.57;;;2.25;;
20511;SDS011;10414;52.074;5.126;2022-07-23T15:01:22;4.88;;;2.90;;
20511;SDS011;10414;52.074;5.126;2022-07-23T15:03:49;5.45;;;2.88;;
20511;SDS011;10414;52.074;5.126;2022-07-23T15:06:17;4.60;;;2.22;;
20511;SDS011;10414;52.074;5.126;2022-07-23T15:08:44;4.30;;;2.30;;
20511;SDS011;10414;52.074;5.126;2022-07-23T15:11:12;5.68;;;2.78;;
20511;SDS011;10414;52.074;5.126;2022-07-23T15:13:39;4.97;;;2.40;;
20511;SDS011;10414;52.074;5.126;2022-07-23T15:16:06;5.47;;;2.50;;
20511;SDS011;10414;52.074;5.126;2022-07-23T15:18:34;4.28;;;2.40;;
20511;SDS011;10414;52.074;5.126;2022-07-23T15:21:01;7.18;;;2.67;;
20511;SDS011;10414;52.074;5.126;2022-07-23T15:23:30;4.07;;;2.20;;